Time;durP1;ratioP1;P1;durP2;ratioP2;P2;SDS_P1;SDS_P2;PMS_P1;PMS_P2;Temp;Humidity;BMP_temperature;BMP_pressure;BME280_temperature;BME280_humidity;BME280_pressure;Samples;Min_cycle;Max_cycle;Signal;HPM_P1;HPM_P2
2022/06/10 00:00:33;;;;;;;15.00;4.15;;;;;;;;;;5016101;28;20046;-65
2022/06/10 00:02:59;;;;;;;16.77;4.50;;;;;;;;;;5016115;28;20104;-66
2022/06/10 00:05:28;;;;;;;18.02;4.78;;;;;;;;;;5015707;28;20196;-65
2022/06/10 00:07:54;;;;;;;18.15;4.93;;;;;;;;;;5016078;28;20425;-66
2022/06/10 00:10:22;;;;;;;17.52;4.45;;;;;;;;;;5014667;28;20363;-66
2022/06/10 00:12:48;;;;;;;16.38;4.93;;;;;;;;;;5016392;28;20042;-65
2022/06/10 00:15:15;;;;;;;15.85;4.20;;;;;;;;;;5015872;28;20498;-65
2022/06/10 00:17:41;;;;;;;16.10;4.35;;;;;;;;;;5016076;28;20050;-66
2022/06/10 00:20:09;;;;;;;13.65;4.10;;;;;;;;;;5014960;28;20042;-66
2022/06/10 00:22:35;;;;;;;18.85;5.20;;;;;;;;;;5015748;28;20490;-65
2022/06/10 00:25:01;;;;;;;12.25;3.75;;;;;;;;;;5015559;28;20049;-66
2022/06/10 00:27:27;;;;;;;;;;;;;;;;;;5016232;28;20068;-65
2022/06/10 00:29:54;;;;;;;16.05;4.00;;;;;;;;;;5015407;28;20016;-66
2022/06/10 00:32:20;;;;;;;18.02;4.63;;;;;;;;;;5015479;28;20401;-65
2022/06/10 00:34:46;;;;;;;12.93;4.50;;;;;;;;;;5014303;28;20046;-65
2022/06/10 00:37:12;;;;;;;27.02;4.68;;;;;;;;;;5015530;28;20464;-65
2022/06/10 00:39:38;;;;;;;;;;;;;;;;;;5015556;28;20046;-65
2022/06/10 00:42:06;;;;;;;15.02;4.53;;;;;;;;;;5015995;28;19977;-65
2022/06/10 00:44:37;;;;;;;15.05;4.75;;;;;;;;;;5015709;28;20060;-66
2022/06/10 00:47:06;;;;;;;18.23;5.20;;;;;;;;;;5015680;28;20049;-66
2022/06/10 00:49:32;;;;;;;22.67;6.13;;;;;;;;;;5015198;28;20065;-66
2022/06/10 00:51:59;;;;;;;17.20;4.60;;;;;;;;;;5014994;28;20387;-65
2022/06/10 00:54:29;;;;;;;14.60;4.65;;;;;;;;;;5013208;28;20097;-65
2022/06/10 00:57:04;;;;;;;18.70;5.00;;;;;;;;;;5014071;28;20085;-65
2022/06/10 00:59:36;;;;;;;19.33;5.50;;;;;;;;;;5014088;28;20156;-65
2022/06/10 01:02:10;;;;;;;17.30;5.40;;;;;;;;;;5010614;28;20352;-64
2022/06/10 01:04:40;;;;;;;14.73;5.60;;;;;;;;;;5010425;28;20078;-65
2022/06/10 01:07:06;;;;;;;19.70;5.47;;;;;;;;;;5014005;28;20104;-67
2022/06/10 01:09:32;;;;;;;;;;;;;;;;;;5014390;28;20505;-67
2022/06/10 01:11:58;;;;;;;19.23;5.00;;;;;;;;;;5014129;28;19925;-67
2022/06/10 01:14:36;;;;;;;14.85;5.57;;;;;;;;;;5013663;28;20054;-67
2022/06/10 01:17:05;;;;;;;16.17;5.20;;;;;;;;;;5013305;28;20458;-67
2022/06/10 01:19:50;;;;;;;19.40;5.63;;;;;;;;;;5014075;28;20108;-67
2022/06/10 01:22:25;;;;;;;15.95;4.70;;;;;;;;;;5014320;28;20559;-67
2022/06/10 01:24:57;;;;;;;17.58;5.03;;;;;;;;;;5014163;28;20057;-66
2022/06/10 01:27:48;;;;;;;15.68;5.25;;;;;;;;;;5013697;28;20049;-67
2022/06/10 01:30:23;;;;;;;17.58;5.15;;;;;;;;;;5012913;28;20441;-67
2022/06/10 01:32:52;;;;;;;16.48;5.20;;;;;;;;;;5012645;28;20057;-67
2022/06/10 01:35:30;;;;;;;13.70;4.60;;;;;;;;;;5013804;28;20493;-66
2022/06/10 01:38:01;;;;;;;18.48;5.80;;;;;;;;;;5014029;28;20421;-66
2022/06/10 01:40:31;;;;;;;13.23;4.75;;;;;;;;;;5013197;28;20532;-66
2022/06/10 01:43:00;;;;;;;17.63;5.53;;;;;;;;;;5013886;28;20517;-66
2022/06/10 01:45:50;;;;;;;17.63;4.88;;;;;;;;;;5012086;28;20501;-66
2022/06/10 01:48:35;;;;;;;19.30;5.53;;;;;;;;;;5010397;28;20133;-66
2022/06/10 01:51:10;;;;;;;19.33;5.30;;;;;;;;;;5013421;28;20050;-66
2022/06/10 01:53:46;;;;;;;14.77;5.28;;;;;;;;;;5012670;28;20045;-66
2022/06/10 01:56:22;;;;;;;16.13;5.50;;;;;;;;;;5012619;28;20045;-66
2022/06/10 01:58:50;;;;;;;17.90;5.50;;;;;;;;;;5013883;28;20160;-66
2022/06/10 02:01:20;;;;;;;15.38;5.40;;;;;;;;;;5012509;28;20485;-66
2022/06/10 02:04:15;;;;;;;20.23;6.07;;;;;;;;;;5012460;28;20060;-66
2022/06/10 02:06:47;;;;;;;18.55;5.90;;;;;;;;;;5007394;28;20137;-66
2022/06/10 02:09:16;;;;;;;17.98;5.78;;;;;;;;;;5013408;28;20124;-67
2022/06/10 02:11:46;;;;;;;19.40;6.10;;;;;;;;;;5013222;28;20045;-65
2022/06/10 02:14:17;;;;;;;19.05;5.38;;;;;;;;;;5013052;28;20050;-66
2022/06/10 02:16:47;;;;;;;16.00;5.35;;;;;;;;;;5011516;28;20041;-66
2022/06/10 02:19:16;;;;;;;20.35;6.15;;;;;;;;;;5011273;28;20129;-67
2022/06/10 02:21:49;;;;;;;19.55;6.00;;;;;;;;;;5011890;28;20045;-67
2022/06/10 02:24:18;;;;;;;18.55;5.50;;;;;;;;;;5012350;28;20324;-66
2022/06/10 02:26:46;;;;;;;19.08;5.75;;;;;;;;;;5013535;28;20100;-67
2022/06/10 02:29:15;;;;;;;19.30;6.15;;;;;;;;;;5013665;28;20541;-67
2022/06/10 02:31:43;;;;;;;16.95;5.68;;;;;;;;;;5013136;28;20508;-66
2022/06/10 02:34:09;;;;;;;18.55;5.68;;;;;;;;;;5013532;28;20053;-66
2022/06/10 02:36:43;;;;;;;18.25;6.22;;;;;;;;;;5012501;28;20046;-66
2022/06/10 02:39:12;;;;;;;20.15;5.53;;;;;;;;;;5013209;28;20534;-66
2022/06/10 02:41:48;;;;;;;18.40;5.68;;;;;;;;;;5012777;28;20046;-66
2022/06/10 02:44:34;;;;;;;16.15;5.72;;;;;;;;;;5012850;28;20053;-66
2022/06/10 02:47:03;;;;;;;16.17;5.93;;;;;;;;;;5012710;28;20054;-66
2022/06/10 02:49:29;;;;;;;15.43;5.55;;;;;;;;;;5013262;28;20072;-66
2022/06/10 02:51:55;;;;;;;;;;;;;;;;;;5013662;28;20168;-67
2022/06/10 02:54:32;;;;;;;17.25;5.38;;;;;;;;;;5012688;28;19925;-66
2022/06/10 02:56:58;;;;;;;17.67;5.50;;;;;;;;;;5012838;28;20418;-67
2022/06/10 03:02:18;;;;;;;16.13;5.78;;;;;;;;;;5012474;28;20122;-66
2022/06/10 03:05:03;;;;;;;19.08;5.88;;;;;;;;;;5012009;28;20050;-66
2022/06/10 03:07:43;;;;;;;14.65;5.72;;;;;;;;;;5011530;28;20045;-66
2022/06/10 03:10:17;;;;;;;21.52;6.35;;;;;;;;;;5011750;28;20049;-66
2022/06/10 03:13:08;;;;;;;15.68;5.75;;;;;;;;;;5011125;28;20061;-67
2022/06/10 03:15:34;;;;;;;24.15;6.97;;;;;;;;;;5008288;28;20098;-66
2022/06/10 03:18:12;;;;;;;18.23;5.63;;;;;;;;;;5015643;28;20056;-66
2022/06/10 03:20:47;;;;;;;17.30;6.05;;;;;;;;;;5014949;28;20496;-66
2022/06/10 03:23:24;;;;;;;23.17;6.22;;;;;;;;;;5015621;28;20100;-66
2022/06/10 03:25:59;;;;;;;15.30;5.90;;;;;;;;;;5014870;28;20612;-66
2022/06/10 03:28:29;;;;;;;16.80;5.82;;;;;;;;;;5016164;28;20053;-66
2022/06/10 03:30:58;;;;;;;20.30;6.32;;;;;;;;;;5014974;28;20104;-66
2022/06/10 03:33:28;;;;;;;18.50;6.07;;;;;;;;;;5015754;28;20143;-66
2022/06/10 03:36:08;;;;;;;21.38;6.13;;;;;;;;;;5014027;28;20065;-66
2022/06/10 03:38:39;;;;;;;16.38;5.97;;;;;;;;;;5014804;28;20056;-66
2022/06/10 03:41:05;;;;;;;19.77;5.72;;;;;;;;;;5015304;28;20056;-66
2022/06/10 03:43:36;;;;;;;19.10;5.90;;;;;;;;;;5014047;28;20053;-65
2022/06/10 03:46:04;;;;;;;16.60;5.80;;;;;;;;;;5014430;28;20056;-66
2022/06/10 03:48:32;;;;;;;18.40;5.95;;;;;;;;;;5014527;28;20568;-66
2022/06/10 03:50:59;;;;;;;18.30;5.80;;;;;;;;;;5014794;28;20057;-66
2022/06/10 03:53:25;;;;;;;;;;;;;;;;;;5013837;28;20092;-66
2022/06/10 03:55:51;;;;;;;18.85;5.55;;;;;;;;;;5014622;28;19917;-67
2022/06/10 03:58:17;;;;;;;17.90;5.10;;;;;;;;;;5014967;28;20373;-66
2022/06/10 04:00:44;;;;;;;14.02;5.30;;;;;;;;;;5014168;28;20054;-66
2022/06/10 04:03:10;;;;;;;18.70;5.38;;;;;;;;;;5014231;28;20111;-65
2022/06/10 04:05:36;;;;;;;17.65;5.80;;;;;;;;;;5014073;28;20073;-66
2022/06/10 04:08:02;;;;;;;16.92;5.40;;;;;;;;;;5014407;28;20057;-67
2022/06/10 04:10:29;;;;;;;18.45;5.32;;;;;;;;;;5014064;28;20041;-66
2022/06/10 04:12:55;;;;;;;17.25;5.40;;;;;;;;;;5013939;28;20450;-66
2022/06/10 04:15:25;;;;;;;18.33;4.82;;;;;;;;;;5014164;28;20132;-66
2022/06/10 04:17:52;;;;;;;16.27;5.28;;;;;;;;;;5012721;28;20475;-66
2022/06/10 04:20:20;;;;;;;22.00;6.28;;;;;;;;;;5014226;28;20378;-65
2022/06/10 04:22:46;;;;;;;23.48;5.80;;;;;;;;;;5014193;28;20143;-67
2022/06/10 04:25:12;;;;;;;15.93;4.78;;;;;;;;;;5014043;28;20058;-66
2022/06/10 04:27:38;;;;;;;17.02;5.38;;;;;;;;;;5012857;28;20077;-66
2022/06/10 04:30:06;;;;;;;22.92;5.47;;;;;;;;;;5014819;28;20471;-66
2022/06/10 04:32:32;;;;;;;18.05;5.40;;;;;;;;;;5014687;28;20038;-66
2022/06/10 04:34:58;;;;;;;19.95;5.35;;;;;;;;;;5014978;28;20049;-66
2022/06/10 04:37:25;;;;;;;18.65;5.28;;;;;;;;;;5013862;28;20096;-65
2022/06/10 04:39:52;;;;;;;14.93;4.47;;;;;;;;;;5013679;28;20050;-65
2022/06/10 04:42:21;;;;;;;24.17;6.43;;;;;;;;;;5013176;28;20042;-65
2022/06/10 04:44:47;;;;;;;17.02;5.00;;;;;;;;;;5011153;28;20138;-65
2022/06/10 04:47:13;;;;;;;22.83;5.50;;;;;;;;;;5012555;28;20480;-64
2022/06/10 04:49:39;;;;;;;18.83;4.78;;;;;;;;;;5013313;28;20132;-64
2022/06/10 04:52:05;;;;;;;;;;;;;;;;;;5013296;28;20553;-64
2022/06/10 04:54:31;;;;;;;19.70;5.47;;;;;;;;;;5012503;28;19996;-64
2022/06/10 04:56:57;;;;;;;19.02;4.80;;;;;;;;;;5012347;28;20058;-65
2022/06/10 04:59:23;;;;;;;16.67;4.53;;;;;;;;;;5011636;28;20501;-65
2022/06/10 05:01:51;;;;;;;19.52;5.30;;;;;;;;;;5010657;28;20046;-65
2022/06/10 05:04:17;;;;;;;25.20;5.53;;;;;;;;;;5011070;28;20531;-64
2022/06/10 05:06:44;;;;;;;18.58;5.00;;;;;;;;;;5010267;28;20450;-64
2022/06/10 05:09:10;;;;;;;16.65;4.80;;;;;;;;;;5012442;28;20045;-65
2022/06/10 05:11:36;;;;;;;17.00;5.55;;;;;;;;;;5011356;28;20127;-64
2022/06/10 05:14:02;;;;;;;18.33;4.95;;;;;;;;;;5010168;28;20449;-64
2022/06/10 05:16:28;;;;;;;19.83;5.00;;;;;;;;;;5009692;28;20132;-64
2022/06/10 05:18:54;;;;;;;20.80;5.15;;;;;;;;;;5010415;28;20046;-64
2022/06/10 05:21:20;;;;;;;;;;;;;;;;;;5011153;28;20062;-64
2022/06/10 05:23:47;;;;;;;21.77;5.25;;;;;;;;;;5012782;28;19982;-64
2022/06/10 05:26:14;;;;;;;21.73;5.13;;;;;;;;;;5013583;28;20045;-64
2022/06/10 05:28:40;;;;;;;17.80;5.25;;;;;;;;;;5012573;28;20065;-65
2022/06/10 05:31:06;;;;;;;18.55;5.22;;;;;;;;;;5013754;28;20527;-64
2022/06/10 05:36:20;;;;;;;22.33;5.45;;;;;;;;;;5013157;28;20544;-64
2022/06/10 05:38:47;;;;;;;19.88;5.18;;;;;;;;;;5011815;28;20053;-65
2022/06/10 05:43:58;;;;;;;16.80;4.75;;;;;;;;;;5011667;28;20054;-64
2022/06/10 05:46:24;;;;;;;20.73;6.03;;;;;;;;;;5010275;28;20041;-65
2022/06/10 05:48:50;;;;;;;25.10;9.50;;;;;;;;;;5011110;28;20410;-64
2022/06/10 05:51:18;;;;;;;25.88;6.57;;;;;;;;;;5012341;28;20061;-65
2022/06/10 05:53:44;;;;;;;17.08;5.18;;;;;;;;;;5013344;28;20057;-65
2022/06/10 05:56:10;;;;;;;18.80;5.13;;;;;;;;;;5013590;28;20064;-64
2022/06/10 05:58:36;;;;;;;17.02;5.45;;;;;;;;;;5011951;28;20232;-65
2022/06/10 06:01:03;;;;;;;25.45;5.80;;;;;;;;;;5013441;28;20184;-65
2022/06/10 06:03:29;;;;;;;19.95;5.45;;;;;;;;;;5013960;28;20060;-66
2022/06/10 06:05:55;;;;;;;29.38;11.52;;;;;;;;;;5014257;28;20041;-65
2022/06/10 06:08:21;;;;;;;20.58;5.38;;;;;;;;;;5013383;28;20081;-65
2022/06/10 06:10:47;;;;;;;21.50;6.07;;;;;;;;;;5012640;28;20054;-62
2022/06/10 06:13:13;;;;;;;21.13;5.80;;;;;;;;;;5013393;28;20132;-64
2022/06/10 06:15:39;;;;;;;20.08;5.35;;;;;;;;;;5013966;28;20049;-65
2022/06/10 06:18:05;;;;;;;;;;;;;;;;;;5014462;28;20045;-64
2022/06/10 06:20:31;;;;;;;21.85;6.15;;;;;;;;;;5013898;28;19921;-65
2022/06/10 06:22:57;;;;;;;21.23;6.18;;;;;;;;;;5014449;28;20096;-65
2022/06/10 06:25:24;;;;;;;25.58;5.63;;;;;;;;;;5014235;28;20042;-64
2022/06/10 06:27:50;;;;;;;19.35;5.68;;;;;;;;;;5013812;28;20076;-64
2022/06/10 06:30:16;;;;;;;;;;;;;;;;;;5013762;28;20049;-65
2022/06/10 06:32:42;;;;;;;21.60;6.03;;;;;;;;;;5014192;28;19921;-65
2022/06/10 06:35:08;;;;;;;20.73;6.70;;;;;;;;;;5013060;28;20099;-65
2022/06/10 06:37:34;;;;;;;20.67;6.68;;;;;;;;;;5013799;28;20046;-65
2022/06/10 06:40:00;;;;;;;33.75;6.30;;;;;;;;;;5013248;28;20053;-65
2022/06/10 06:42:26;;;;;;;23.25;6.93;;;;;;;;;;5014567;28;20053;-64
2022/06/10 06:44:52;;;;;;;23.58;7.38;;;;;;;;;;5012719;28;20490;-64
2022/06/10 06:47:19;;;;;;;21.60;7.45;;;;;;;;;;5013369;28;20076;-66
2022/06/10 06:49:45;;;;;;;28.73;7.97;;;;;;;;;;5013219;28;20121;-64
2022/06/10 06:52:11;;;;;;;20.48;7.20;;;;;;;;;;5012324;28;20049;-65
2022/06/10 06:54:40;;;;;;;30.35;9.50;;;;;;;;;;5013333;28;20050;-64
2022/06/10 06:57:06;;;;;;;27.60;8.02;;;;;;;;;;5013247;28;20060;-65
2022/06/10 06:59:33;;;;;;;23.38;7.82;;;;;;;;;;5013000;28;20050;-64
2022/06/10 07:01:59;;;;;;;22.15;7.75;;;;;;;;;;5012196;28;20050;-64
2022/06/10 07:04:26;;;;;;;23.48;8.23;;;;;;;;;;5013380;28;20100;-64
2022/06/10 07:06:52;;;;;;;23.98;7.53;;;;;;;;;;5012915;28;20054;-62
2022/06/10 07:09:18;;;;;;;;;;;;;;;;;;5012743;28;20049;-62
2022/06/10 07:11:44;;;;;;;23.58;7.43;;;;;;;;;;5010840;28;19940;-63
2022/06/10 07:14:10;;;;;;;29.60;7.63;;;;;;;;;;5010222;28;20050;-63
2022/06/10 07:16:37;;;;;;;30.13;7.65;;;;;;;;;;5011015;28;20128;-63
2022/06/10 07:19:03;;;;;;;28.27;7.53;;;;;;;;;;5009286;28;20407;-64
2022/06/10 07:21:30;;;;;;;22.13;7.05;;;;;;;;;;5011707;28;20049;-63
2022/06/10 07:23:56;;;;;;;21.55;7.15;;;;;;;;;;5011488;28;20462;-63
2022/06/10 07:26:23;;;;;;;21.27;7.13;;;;;;;;;;5011740;28;20046;-64
2022/06/10 07:28:49;;;;;;;25.08;8.10;;;;;;;;;;5010989;28;20148;-64
2022/06/10 07:31:15;;;;;;;18.45;7.95;;;;;;;;;;5011824;28;20081;-63
2022/06/10 07:33:42;;;;;;;20.55;7.22;;;;;;;;;;5011350;28;20054;-63
2022/06/10 07:36:10;;;;;;;21.13;7.53;;;;;;;;;;5011841;28;20046;-63
2022/06/10 07:38:36;;;;;;;19.55;6.95;;;;;;;;;;5011984;28;20054;-65
2022/06/10 07:43:47;;;;;;;21.70;8.15;;;;;;;;;;5011890;28;20057;-64
2022/06/10 07:46:15;;;;;;;20.20;8.23;;;;;;;;;;5011110;28;20057;-63
2022/06/10 07:48:42;;;;;;;23.98;8.73;;;;;;;;;;5011821;28;20061;-64
2022/06/10 07:51:08;;;;;;;22.40;8.63;;;;;;;;;;5010954;28;20057;-64
2022/06/10 07:53:34;;;;;;;18.80;8.13;;;;;;;;;;5009326;28;20083;-64
2022/06/10 07:56:01;;;;;;;25.65;9.30;;;;;;;;;;5010689;28;20050;-65
2022/06/10 07:58:29;;;;;;;21.67;8.95;;;;;;;;;;5009686;28;20065;-64
2022/06/10 08:00:57;;;;;;;22.65;8.35;;;;;;;;;;5011633;28;20050;-63
2022/06/10 08:03:23;;;;;;;19.33;8.88;;;;;;;;;;5013082;28;20152;-65
2022/06/10 08:05:49;;;;;;;22.92;8.52;;;;;;;;;;5016242;28;20049;-64
2022/06/10 08:08:15;;;;;;;;;;;;;;;;;;5015851;28;20050;-64
2022/06/10 08:10:41;;;;;;;23.08;11.27;;;;;;;;;;5015580;28;20007;-64
2022/06/10 08:13:07;;;;;;;22.30;9.80;;;;;;;;;;5013690;28;20551;-64
2022/06/10 08:15:33;;;;;;;;;;;;;;;;;;5014532;28;20092;-64
2022/06/10 08:17:59;;;;;;;20.42;8.55;;;;;;;;;;5015390;28;20238;-64
2022/06/10 08:22:32;;;;;;;;;;;;;;;;;;5013973;28;20060;-63
2022/06/10 08:23:11;;;;;;;20.45;8.30;;;;;;;;;;5014029;28;20025;-63
2022/06/10 08:25:38;;;;;;;15.85;8.40;;;;;;;;;;5014036;28;20149;-63
2022/06/10 08:28:04;;;;;;;;;;;;;;;;;;5014768;28;20052;-63
2022/06/10 08:30:30;;;;;;;23.13;9.88;;;;;;;;;;5013744;28;19917;-63
2022/06/10 08:32:56;;;;;;;19.77;9.55;;;;;;;;;;5013325;28;20339;-65
2022/06/10 08:35:22;;;;;;;19.05;8.98;;;;;;;;;;5012568;28;20498;-64
2022/06/10 08:37:48;;;;;;;22.30;9.30;;;;;;;;;;5013545;28;20061;-64
2022/06/10 08:40:21;;;;;;;27.88;11.18;;;;;;;;;;5013563;28;20100;-64
2022/06/10 08:42:48;;;;;;;29.75;14.45;;;;;;;;;;5013941;28;20049;-66
2022/06/10 08:45:21;;;;;;;20.90;10.30;;;;;;;;;;5015285;28;20092;-64
2022/06/10 08:47:47;;;;;;;27.75;10.95;;;;;;;;;;5015059;28;20123;-64
2022/06/10 08:50:32;;;;;;;25.02;9.68;;;;;;;;;;5014344;28;20473;-65
2022/06/10 08:53:07;;;;;;;26.20;10.10;;;;;;;;;;5014800;28;20050;-65
2022/06/10 08:55:36;;;;;;;25.35;9.98;;;;;;;;;;5014294;28;20045;-65
2022/06/10 08:58:04;;;;;;;20.50;9.18;;;;;;;;;;5014176;28;20042;-64
2022/06/10 09:00:32;;;;;;;25.75;9.35;;;;;;;;;;5013868;28;20478;-64
2022/06/10 09:03:04;;;;;;;21.35;9.55;;;;;;;;;;5015149;28;20049;-64
2022/06/10 09:05:34;;;;;;;25.33;10.45;;;;;;;;;;5014565;28;20046;-63
2022/06/10 09:08:01;;;;;;;21.63;10.15;;;;;;;;;;5014179;28;20052;-63
2022/06/10 09:10:44;;;;;;;25.50;10.32;;;;;;;;;;5013682;28;20196;-64
2022/06/10 09:13:29;;;;;;;21.80;10.23;;;;;;;;;;5013183;28;20045;-65
2022/06/10 09:16:04;;;;;;;24.42;10.02;;;;;;;;;;5013054;28;20137;-63
2022/06/10 09:18:51;;;;;;;26.50;10.00;;;;;;;;;;5013475;28;20517;-63
2022/06/10 09:21:43;;;;;;;23.98;10.60;;;;;;;;;;5013552;28;20050;-64
2022/06/10 09:24:13;;;;;;;28.83;11.40;;;;;;;;;;4997567;28;20061;-64
2022/06/10 09:26:41;;;;;;;27.38;10.43;;;;;;;;;;5014178;28;20458;-66
2022/06/10 09:29:08;;;;;;;26.13;10.32;;;;;;;;;;5012755;28;20054;-65
2022/06/10 09:31:34;;;;;;;23.35;10.10;;;;;;;;;;5014714;28;20058;-64
2022/06/10 09:34:09;;;;;;;22.67;9.85;;;;;;;;;;5014256;28;20056;-65
2022/06/10 09:36:35;;;;;;;36.42;17.33;;;;;;;;;;5013891;28;20133;-64
2022/06/10 09:40:36;;;;;;;23.98;9.70;;;;;;;;;;5014079;28;20134;-64
2022/06/10 09:42:17;;;;;;;22.27;9.65;;;;;;;;;;5014063;28;20057;-65
2022/06/10 09:45:07;;;;;;;20.88;8.77;;;;;;;;;;5014522;28;20124;-64
2022/06/10 09:47:53;;;;;;;27.23;9.75;;;;;;;;;;5010664;28;20053;-64
2022/06/10 09:50:27;;;;;;;20.83;9.68;;;;;;;;;;5013372;28;20061;-64
2022/06/10 09:52:54;;;;;;;27.45;12.35;;;;;;;;;;5012317;28;20133;-64
2022/06/10 09:55:20;;;;;;;;;;;;;;;;;;5014320;28;20091;-64
2022/06/10 09:57:52;;;;;;;25.50;9.10;;;;;;;;;;5013200;28;19940;-65
2022/06/10 10:00:24;;;;;;;22.50;9.27;;;;;;;;;;5014318;28;20133;-64
2022/06/10 10:02:50;;;;;;;22.45;8.73;;;;;;;;;;5013262;28;20051;-66
2022/06/10 10:05:31;;;;;;;21.38;8.43;;;;;;;;;;5012986;28;20394;-65
2022/06/10 10:08:03;;;;;;;21.70;9.40;;;;;;;;;;5013439;28;20054;-65
2022/06/10 10:10:32;;;;;;;18.95;9.18;;;;;;;;;;5013685;28;20513;-64
2022/06/10 10:13:04;;;;;;;23.55;10.07;;;;;;;;;;5013799;28;20103;-66
2022/06/10 10:15:36;;;;;;;26.42;10.18;;;;;;;;;;5013628;28;20050;-65
2022/06/10 10:18:14;;;;;;;22.83;9.95;;;;;;;;;;5014044;28;20053;-65
2022/06/10 10:20:45;;;;;;;28.67;9.93;;;;;;;;;;5013424;28;20046;-65
2022/06/10 10:23:14;;;;;;;27.00;10.10;;;;;;;;;;5013834;28;20045;-63
2022/06/10 10:25:41;;;;;;;24.83;11.23;;;;;;;;;;5013339;28;20046;-65
2022/06/10 10:28:14;;;;;;;24.02;9.82;;;;;;;;;;5014024;28;20050;-65
2022/06/10 10:30:55;;;;;;;24.23;10.00;;;;;;;;;;5013993;28;20049;-66
2022/06/10 10:33:21;;;;;;;25.85;9.73;;;;;;;;;;5013204;28;20132;-65
2022/06/10 10:35:51;;;;;;;24.05;9.98;;;;;;;;;;5014127;28;20057;-65
2022/06/10 10:38:36;;;;;;;23.58;10.50;;;;;;;;;;5013559;28;20061;-65
2022/06/10 10:41:14;;;;;;;23.48;10.15;;;;;;;;;;5013218;28;20065;-64
2022/06/10 10:43:43;;;;;;;26.35;10.75;;;;;;;;;;5014066;28;20052;-65
2022/06/10 10:46:27;;;;;;;22.50;10.13;;;;;;;;;;5013150;28;20458;-66
2022/06/10 10:48:57;;;;;;;24.85;10.70;;;;;;;;;;5012954;28;20093;-65
2022/06/10 10:51:25;;;;;;;21.50;10.23;;;;;;;;;;5013235;28;20046;-65
2022/06/10 10:53:56;;;;;;;20.13;9.73;;;;;;;;;;5012111;28;20409;-66
2022/06/10 10:56:34;;;;;;;30.10;13.18;;;;;;;;;;5012860;28;20143;-67
2022/06/10 10:59:00;;;;;;;23.60;10.57;;;;;;;;;;5013414;28;20520;-64
2022/06/10 11:01:43;;;;;;;18.75;9.52;;;;;;;;;;5013665;28;20096;-65
2022/06/10 11:04:29;;;;;;;26.27;10.02;;;;;;;;;;5013283;28;20097;-65
2022/06/10 11:07:18;;;;;;;21.92;10.13;;;;;;;;;;5013556;28;20053;-66
2022/06/10 11:09:46;;;;;;;20.40;8.98;;;;;;;;;;5009568;28;20050;-66
2022/06/10 11:12:17;;;;;;;20.13;9.23;;;;;;;;;;5013422;28;20343;-66
2022/06/10 11:14:46;;;;;;;20.48;8.98;;;;;;;;;;5012751;28;20050;-65
2022/06/10 11:17:13;;;;;;;24.30;9.40;;;;;;;;;;5012735;28;20049;-65
2022/06/10 11:19:44;;;;;;;21.25;9.35;;;;;;;;;;5013090;28;20050;-65
2022/06/10 11:22:24;;;;;;;19.95;9.50;;;;;;;;;;5013742;28;20045;-65
2022/06/10 11:25:16;;;;;;;21.92;10.02;;;;;;;;;;5013400;28;20066;-65
2022/06/10 11:27:48;;;;;;;23.63;9.45;;;;;;;;;;5009823;28;20076;-65
2022/06/10 11:30:14;;;;;;;19.05;8.95;;;;;;;;;;5011616;28;20455;-62
2022/06/10 11:32:40;;;;;;;19.08;9.30;;;;;;;;;;5009904;28;20496;-62
2022/06/10 11:35:25;;;;;;;18.52;7.88;;;;;;;;;;5009283;28;20077;-62
2022/06/10 11:37:56;;;;;;;19.23;8.60;;;;;;;;;;5011277;28;20169;-64
2022/06/10 11:40:25;;;;;;;20.77;7.95;;;;;;;;;;5013202;28;20104;-63
2022/06/10 11:42:56;;;;;;;22.80;11.93;;;;;;;;;;5012912;28;20124;-64
2022/06/10 11:45:24;;;;;;;19.60;9.43;;;;;;;;;;5011688;28;20335;-63
2022/06/10 11:48:01;;;;;;;17.73;8.57;;;;;;;;;;5013895;28;20054;-63
2022/06/10 11:50:45;;;;;;;20.92;8.77;;;;;;;;;;5013813;28;20433;-64
2022/06/10 11:53:15;;;;;;;20.95;8.50;;;;;;;;;;5012746;28;20100;-63
2022/06/10 11:55:43;;;;;;;18.38;8.15;;;;;;;;;;5011880;28;20060;-63
2022/06/10 12:01:21;;;;;;;19.35;7.70;;;;;;;;;;5013369;28;20068;-65
2022/06/10 12:03:54;;;;;;;16.75;8.13;;;;;;;;;;5011023;28;20074;-63
2022/06/10 12:06:20;;;;;;;20.50;7.97;;;;;;;;;;5015016;28;20072;-63
2022/06/10 12:08:50;;;;;;;23.50;8.40;;;;;;;;;;5013402;28;20104;-64
2022/06/10 12:11:28;;;;;;;23.33;7.97;;;;;;;;;;5013965;28;20064;-63
2022/06/10 12:13:59;;;;;;;17.75;8.20;;;;;;;;;;5012573;28;20049;-63
2022/06/10 12:16:27;;;;;;;19.77;8.07;;;;;;;;;;5011736;28;20076;-63
2022/06/10 12:18:53;;;;;;;21.88;9.68;;;;;;;;;;5011813;28;20065;-63
2022/06/10 12:21:21;;;;;;;20.40;8.05;;;;;;;;;;5013083;28;20095;-64
2022/06/10 12:23:47;;;;;;;19.02;8.60;;;;;;;;;;5012118;28;20084;-64
2022/06/10 12:26:19;;;;;;;20.42;8.60;;;;;;;;;;5013201;28;20073;-63
2022/06/10 12:29:01;;;;;;;23.00;8.95;;;;;;;;;;4995767;28;20053;-63
2022/06/10 12:31:27;;;;;;;19.90;9.45;;;;;;;;;;5013684;28;20053;-64
2022/06/10 12:34:23;;;;;;;22.13;9.73;;;;;;;;;;5013817;28;20123;-64
2022/06/10 12:37:00;;;;;;;22.15;8.90;;;;;;;;;;4994905;28;20412;-62
2022/06/10 12:39:31;;;;;;;25.52;8.90;;;;;;;;;;5014665;28;20046;-65
2022/06/10 12:42:18;;;;;;;23.17;8.63;;;;;;;;;;5013670;28;20359;-62
2022/06/10 12:44:48;;;;;;;26.23;9.00;;;;;;;;;;5012879;28;20061;-63
2022/06/10 12:47:17;;;;;;;23.55;7.63;;;;;;;;;;5012275;28;20280;-63
2022/06/10 12:49:44;;;;;;;22.50;8.95;;;;;;;;;;5012485;28;20057;-65
2022/06/10 12:52:27;;;;;;;18.15;9.75;;;;;;;;;;5012745;28;20088;-65
2022/06/10 12:54:58;;;;;;;22.00;8.82;;;;;;;;;;5013668;28;20050;-63
2022/06/10 12:57:24;;;;;;;20.17;8.88;;;;;;;;;;5013259;28;20320;-64
2022/06/10 12:59:50;;;;;;;21.42;8.20;;;;;;;;;;5012656;28;20042;-64
2022/06/10 13:02:16;;;;;;;;;;;;;;;;;;5013546;28;20100;-63
2022/06/10 13:04:42;;;;;;;22.17;7.95;;;;;;;;;;5013668;28;20389;-65
2022/06/10 13:07:25;;;;;;;19.13;8.10;;;;;;;;;;5012611;28;20486;-63
2022/06/10 13:09:52;;;;;;;20.80;7.63;;;;;;;;;;5014761;28;20049;-64
2022/06/10 13:12:18;;;;;;;18.98;7.63;;;;;;;;;;5013509;28;20482;-63
2022/06/10 13:14:47;;;;;;;17.83;7.70;;;;;;;;;;5014100;28;20133;-63
2022/06/10 13:17:17;;;;;;;24.08;8.63;;;;;;;;;;5014342;28;20092;-64
2022/06/10 13:19:52;;;;;;;18.13;8.02;;;;;;;;;;5013633;28;20132;-64
2022/06/10 13:22:18;;;;;;;15.52;8.30;;;;;;;;;;5013004;28;20080;-64
2022/06/10 13:24:44;;;;;;;20.80;8.02;;;;;;;;;;5013170;28;20049;-63
2022/06/10 13:27:20;;;;;;;19.33;7.68;;;;;;;;;;5012995;28;20045;-63
2022/06/10 13:29:51;;;;;;;15.40;6.85;;;;;;;;;;5014006;28;20049;-63
2022/06/10 13:32:17;;;;;;;16.63;6.63;;;;;;;;;;5012638;28;20402;-63
2022/06/10 13:34:43;;;;;;;14.52;6.03;;;;;;;;;;5011865;28;20185;-65
2022/06/10 13:37:15;;;;;;;14.98;6.28;;;;;;;;;;5010543;28;20458;-64
2022/06/10 13:39:43;;;;;;;14.70;5.68;;;;;;;;;;5012679;28;20492;-65
2022/06/10 13:42:26;;;;;;;11.20;4.45;;;;;;;;;;5011542;28;20052;-64
2022/06/10 13:44:52;;;;;;;13.05;4.70;;;;;;;;;;5012750;28;20061;-64
2022/06/10 13:47:21;;;;;;;14.10;4.20;;;;;;;;;;5009979;28;20116;-65
2022/06/10 13:50:17;;;;;;;10.65;3.72;;;;;;;;;;5012817;28;20153;-66
2022/06/10 13:52:54;;;;;;;14.30;4.00;;;;;;;;;;5012049;28;20042;-64
2022/06/10 13:55:32;;;;;;;12.63;4.53;;;;;;;;;;5011775;28;20446;-64
2022/06/10 13:58:05;;;;;;;11.40;3.53;;;;;;;;;;5012228;28;20050;-64
2022/06/10 14:00:33;;;;;;;14.35;3.95;;;;;;;;;;5012229;28;20466;-64
2022/06/10 14:03:00;;;;;;;9.77;2.88;;;;;;;;;;5010362;28;20042;-63
2022/06/10 14:05:28;;;;;;;12.82;3.53;;;;;;;;;;5011737;28;20053;-63
2022/06/10 14:07:56;;;;;;;13.07;3.20;;;;;;;;;;5012562;28;20117;-62
2022/06/10 14:10:27;;;;;;;13.63;3.33;;;;;;;;;;5011267;28;20046;-63
2022/06/10 14:13:05;;;;;;;12.52;3.35;;;;;;;;;;5010856;28;20085;-66
2022/06/10 14:15:32;;;;;;;10.98;3.30;;;;;;;;;;5012021;28;20072;-64
2022/06/10 14:18:00;;;;;;;10.73;3.35;;;;;;;;;;5012627;28;20132;-63
2022/06/10 14:20:31;;;;;;;10.10;2.92;;;;;;;;;;5011658;28;20050;-63
2022/06/10 14:23:02;;;;;;;11.82;3.65;;;;;;;;;;5010585;28;20141;-65
2022/06/10 14:25:28;;;;;;;10.95;3.20;;;;;;;;;;5010298;28;20366;-63
2022/06/10 14:27:54;;;;;;;;;;;;;;;;;;5011311;28;20425;-65
2022/06/10 14:30:23;;;;;;;12.38;3.60;;;;;;;;;;5010772;28;19973;-64
2022/06/10 14:32:50;;;;;;;14.00;3.05;;;;;;;;;;5010721;28;20541;-64
2022/06/10 14:35:26;;;;;;;13.40;3.55;;;;;;;;;;5010216;28;20129;-64
2022/06/10 14:38:06;;;;;;;13.85;3.88;;;;;;;;;;5011789;28;20050;-62
2022/06/10 14:40:34;;;;;;;13.68;3.33;;;;;;;;;;5012324;28;20100;-65
2022/06/10 14:43:05;;;;;;;12.60;3.83;;;;;;;;;;5010698;28;20093;-62
2022/06/10 14:45:31;;;;;;;10.90;3.40;;;;;;;;;;5012300;28;20049;-64
2022/06/10 14:48:06;;;;;;;14.18;3.22;;;;;;;;;;5009748;28;20493;-64
2022/06/10 14:50:42;;;;;;;12.75;3.42;;;;;;;;;;5010934;28;20046;-65
2022/06/10 14:53:17;;;;;;;11.82;3.20;;;;;;;;;;5011264;28;20045;-66
2022/06/10 14:55:48;;;;;;;11.40;3.10;;;;;;;;;;5011541;28;20187;-64
2022/06/10 14:58:16;;;;;;;11.95;3.75;;;;;;;;;;5010094;28;20129;-64
2022/06/10 15:00:44;;;;;;;17.65;4.53;;;;;;;;;;5010553;28;20054;-65
2022/06/10 15:03:13;;;;;;;13.82;3.92;;;;;;;;;;5011177;28;20084;-64
2022/06/10 15:08:24;;;;;;;13.07;3.30;;;;;;;;;;5011177;28;20053;-65